McQueeney, TX (78123)

7:20 AM CST on December 07, 2016 (GMT -0600)
Las Brisas | | Change Station

Elev 568 ft 29.62 °N, 98.05 °W | Updated 10 seconds ago

Clear
Clear
40.2 °F
Feels Like 40 °F
N
0.0
Wind Variable Wind from North
Gusts 0.0 mph

Today
High -- | Low -- °F
--% Chance of Precip.
Yesterday
High -- | Low -- °F
Precip. -- in
Pressure 30.05 in
Visibility 4.0 miles
Clouds Clear
Windchill 40 °F
Dew Point 39 °F
Humidity 94%
Rainfall 0.00 in
Snow Depth Not available.
7:14 AM 5:33 PM
First Quarter, 52% visible
METAR KBAZ 071251Z 35003KT 4SM BR CLR 06/04 A3005 RMK AO2 SLP176 T00560044
Pressure 30.05 in
Visibility 4.0 miles
Clouds Clear
Windchill 40 °F
Dew Point 39 °F
Humidity 94%
Rainfall 0.00 in
Snow Depth Not available.
7:14 AM 5:33 PM
First Quarter, 52% visible
METAR KBAZ 071251Z 35003KT 4SM BR CLR 06/04 A3005 RMK AO2 SLP176 T00560044

10-Day Weather Forecast

Almanac

Astronomy

Dec. 07, 2016 Rise Set
Actual Time
Civil Twilight
Nautical Twilight
Astronomical Twilight
Moon
Length of Visible Light
Length of Day
Tomorrow will be .
, % of the Moon is Illuminated

Today's Extremes

State Highs State Lows

Community

WunderPhotos

Upload Photos

1,956,112 photos uploaded!

WunderBlog® & News

Nearby

Air Quality

  Air Quality AQ Index Pollutant
Not available.

Snow Depth

Station Depth Elevation

Earthquake Activity

City Distance Mag. Time & Date
Minimum magnitude displayed is 2.5.

Coastal Water Temperatures

Place Temperature

Stations

Nearby Weather Stations

Station Location Temp. Windchill Dew Point Humidity Wind Precip. Elev Updated Type
                   

Watches & Warnings

There are currently no watches in effect.